createdAt,value
2019-05-21T00:03:22.359Z,12.80
2019-05-21T00:08:25.076Z,12.70
2019-05-21T00:13:28.122Z,12.70
2019-05-21T00:18:30.838Z,12.60
2019-05-21T00:23:33.806Z,12.50
2019-05-21T00:28:37.750Z,12.50
2019-05-21T00:34:16.648Z,12.60
2019-05-21T00:39:55.915Z,12.70
2019-05-21T00:44:58.675Z,12.60
2019-05-21T00:50:01.503Z,12.60
2019-05-21T00:55:25.139Z,12.70
2019-05-21T01:00:27.813Z,12.70
2019-05-21T01:05:30.465Z,12.60
2019-05-21T01:10:33.120Z,12.70
2019-05-21T01:15:35.779Z,12.70
2019-05-21T01:20:38.545Z,12.60
2019-05-21T01:25:41.260Z,12.70
2019-05-21T01:30:43.977Z,12.70
2019-05-21T01:35:46.632Z,12.60
2019-05-21T01:40:49.286Z,12.60
2019-05-21T01:45:52.306Z,12.50
2019-05-21T01:50:54.975Z,12.60
2019-05-21T01:56:01.993Z,12.60
2019-05-21T02:01:04.810Z,12.50
2019-05-21T02:06:07.641Z,12.50
2019-05-21T02:11:10.390Z,12.50
2019-05-21T02:16:13.136Z,12.40
2019-05-21T02:21:15.797Z,12.40
2019-05-21T02:26:18.477Z,12.30
2019-05-21T02:31:21.151Z,12.30
2019-05-21T02:36:23.888Z,12.30
2019-05-21T02:41:26.701Z,12.20
2019-05-21T02:46:29.368Z,12.20
2019-05-21T02:51:32.127Z,12.30
2019-05-21T02:56:34.900Z,12.20
2019-05-21T03:01:37.671Z,12.20
2019-05-21T03:06:40.405Z,12.10
2019-05-21T03:11:43.092Z,12.10
2019-05-21T03:16:45.822Z,12.10
2019-05-21T03:21:48.471Z,12.10
2019-05-21T03:26:51.520Z,12.00
2019-05-21T03:31:54.276Z,12.00
2019-05-21T03:36:57.034Z,12.00
2019-05-21T03:41:59.763Z,12.10
2019-05-21T03:47:02.578Z,12.00
2019-05-21T03:52:05.308Z,12.00
2019-05-21T03:57:07.969Z,11.90
2019-05-21T04:02:10.762Z,11.80
2019-05-21T04:07:13.441Z,11.80
2019-05-21T04:12:16.190Z,11.80
2019-05-21T04:17:18.919Z,11.80
2019-05-21T04:22:21.661Z,11.70
2019-05-21T04:27:24.343Z,11.80
2019-05-21T04:32:27.075Z,11.80
2019-05-21T04:37:29.749Z,11.80
2019-05-21T04:42:32.853Z,11.80
2019-05-21T04:47:35.608Z,11.80
2019-05-21T04:52:38.349Z,11.80
2019-05-21T04:57:41.359Z,11.90
2019-05-21T05:02:44.089Z,11.90
2019-05-21T05:07:47.051Z,12.00
2019-05-21T05:12:49.707Z,12.00
2019-05-21T05:17:52.380Z,12.00
2019-05-21T05:22:55.047Z,12.00
2019-05-21T05:27:57.720Z,12.00
2019-05-21T05:33:00.456Z,12.00
2019-05-21T05:38:03.229Z,12.00
2019-05-21T05:43:05.972Z,12.00
2019-05-21T05:48:09.139Z,12.20
2019-05-21T05:53:11.800Z,12.30
2019-05-21T05:58:14.484Z,12.30
2019-05-21T06:03:17.137Z,12.40
2019-05-21T06:08:19.865Z,12.40
2019-05-21T06:13:22.532Z,12.50
2019-05-21T06:18:25.267Z,12.50
2019-05-21T06:23:27.994Z,12.60
2019-05-21T06:28:30.661Z,12.70
2019-05-21T06:33:33.390Z,12.80
2019-05-21T06:38:36.059Z,12.80
2019-05-21T06:43:38.821Z,13.00
2019-05-21T06:48:41.596Z,13.00
2019-05-21T06:53:44.282Z,12.90
2019-05-21T06:58:47.027Z,13.00
2019-05-21T07:03:50.127Z,13.00
2019-05-21T07:08:52.875Z,13.00
2019-05-21T07:13:55.615Z,13.10
2019-05-21T07:18:58.287Z,13.20
2019-05-21T07:24:01.443Z,13.20
2019-05-21T07:29:04.173Z,13.10
2019-05-21T07:34:06.906Z,13.10
2019-05-21T07:39:09.660Z,13.20
2019-05-21T07:44:12.437Z,13.30
2019-05-21T07:49:15.191Z,13.30
2019-05-21T07:54:17.973Z,13.30
2019-05-21T07:59:22.437Z,13.30
2019-05-21T08:04:25.181Z,13.40
2019-05-21T08:09:28.022Z,13.50
2019-05-21T08:14:30.763Z,13.60
2019-05-21T08:19:33.417Z,13.70
2019-05-21T08:24:36.094Z,13.90
2019-05-21T08:29:38.835Z,14.00
2019-05-21T08:34:41.503Z,14.10
2019-05-21T08:39:44.256Z,14.30
2019-05-21T08:44:47.049Z,14.60
2019-05-21T08:49:50.134Z,14.80
2019-05-21T08:54:56.255Z,15.00
2019-05-21T08:59:57.779Z,15.10
2019-05-21T09:05:00.519Z,15.30
2019-05-21T09:10:05.048Z,15.30
2019-05-21T09:15:09.062Z,15.40
2019-05-21T09:20:12.941Z,15.40
2019-05-21T09:25:15.948Z,15.70
2019-05-21T09:30:20.634Z,15.90
2019-05-21T09:35:23.379Z,16.40
2019-05-21T09:40:26.263Z,16.60
2019-05-21T09:45:28.994Z,16.30
2019-05-21T09:50:31.722Z,16.40
2019-05-21T09:55:34.382Z,16.60
2019-05-21T10:00:37.055Z,16.50
2019-05-21T10:05:39.788Z,16.40
2019-05-21T10:10:42.860Z,16.60
2019-05-21T10:15:45.839Z,16.70
2019-05-21T10:20:49.859Z,16.90
2019-05-21T10:25:52.619Z,16.80
2019-05-21T10:30:55.374Z,16.80
2019-05-21T10:35:58.541Z,17.10
2019-05-21T10:41:01.828Z,17.40
2019-05-21T10:46:04.878Z,17.40
2019-05-21T10:51:07.627Z,17.70
2019-05-21T10:56:10.438Z,17.90
2019-05-21T11:01:13.193Z,18.40
2019-05-21T11:06:15.872Z,18.20
2019-05-21T11:11:21.204Z,18.10
2019-05-21T11:16:23.084Z,18.50
2019-05-21T11:21:25.810Z,18.30
2019-05-21T11:26:28.634Z,18.40
2019-05-21T11:31:31.459Z,18.70
2019-05-21T11:36:34.289Z,18.90
2019-05-21T11:41:37.096Z,18.70
2019-05-21T11:46:39.766Z,18.60
2019-05-21T11:51:42.475Z,18.90
2019-05-21T11:56:45.170Z,18.90
2019-05-21T12:01:47.910Z,18.90
2019-05-21T12:06:54.132Z,19.40
2019-05-21T12:11:56.864Z,19.50
2019-05-21T12:16:59.515Z,20.00
2019-05-21T12:22:02.189Z,20.20
2019-05-21T12:27:04.979Z,20.00
2019-05-21T12:32:07.639Z,20.20
2019-05-21T12:37:10.307Z,20.50
2019-05-21T12:42:13.077Z,20.90
2019-05-21T12:47:16.137Z,21.00
2019-05-21T12:52:18.863Z,20.80
2019-05-21T12:57:21.931Z,20.60
2019-05-21T13:02:24.659Z,20.80
2019-05-21T13:07:27.332Z,21.20
2019-05-21T13:12:30.063Z,21.90
2019-05-21T13:17:32.818Z,22.00
2019-05-21T13:22:35.618Z,22.00
2019-05-21T13:27:38.304Z,22.20
2019-05-21T13:32:43.750Z,21.90
2019-05-21T13:37:45.426Z,21.60
2019-05-21T13:42:48.164Z,21.80
2019-05-21T13:47:50.940Z,22.00
2019-05-21T13:52:53.653Z,22.30
2019-05-21T13:57:56.532Z,22.50
2019-05-21T14:02:59.289Z,22.50
2019-05-21T14:08:02.024Z,22.60
2019-05-21T14:13:04.866Z,22.20
2019-05-21T14:18:07.862Z,21.70
2019-05-21T14:23:10.706Z,21.40
2019-05-21T14:28:13.349Z,21.20
2019-05-21T14:33:16.585Z,21.10
2019-05-21T14:38:19.342Z,20.90
2019-05-21T14:43:22.071Z,20.70
2019-05-21T14:48:24.805Z,20.50
2019-05-21T14:53:27.537Z,20.50
2019-05-21T14:58:30.219Z,20.90
2019-05-21T15:03:32.967Z,21.50
2019-05-21T15:08:35.699Z,22.30
2019-05-21T15:13:38.435Z,22.40
2019-05-21T15:18:42.070Z,22.20
2019-05-21T15:23:46.045Z,22.10
2019-05-21T15:28:49.399Z,22.70
2019-05-21T15:33:52.157Z,23.40
2019-05-21T15:38:56.431Z,23.50
2019-05-21T15:43:59.428Z,23.20
2019-05-21T15:49:02.239Z,22.40
2019-05-21T15:54:04.971Z,22.00
2019-05-21T15:59:07.715Z,21.60
2019-05-21T16:04:10.445Z,21.20
2019-05-21T16:09:13.310Z,20.80
2019-05-21T16:14:16.157Z,20.40
2019-05-21T16:19:18.907Z,20.30
2019-05-21T16:24:21.653Z,20.00
2019-05-21T16:29:24.379Z,19.70
2019-05-21T16:34:27.117Z,19.60
2019-05-21T16:39:29.926Z,19.20
2019-05-21T16:44:33.226Z,18.80
2019-05-21T16:49:35.900Z,18.70
2019-05-21T16:54:38.565Z,18.50
2019-05-21T16:59:41.648Z,18.50
2019-05-21T17:04:44.355Z,18.50
2019-05-21T17:09:47.107Z,18.40
2019-05-21T17:14:50.120Z,18.40
2019-05-21T17:19:52.946Z,18.30
2019-05-21T17:24:55.754Z,18.20
2019-05-21T17:29:58.601Z,18.00
2019-05-21T17:35:01.406Z,17.80
2019-05-21T17:40:05.210Z,17.70
2019-05-21T17:45:09.432Z,17.60
2019-05-21T17:50:12.478Z,17.70
2019-05-21T17:55:15.351Z,17.70
2019-05-21T18:00:18.369Z,17.60
2019-05-21T18:05:21.233Z,17.60
2019-05-21T18:10:23.974Z,17.50
2019-05-21T18:15:26.645Z,17.30
2019-05-21T18:20:29.842Z,17.20
2019-05-21T18:25:33.824Z,17.00
2019-05-21T18:30:36.526Z,16.90
2019-05-21T18:35:39.279Z,16.80
2019-05-21T18:40:42.064Z,16.80
2019-05-21T18:45:44.823Z,16.70
2019-05-21T18:50:47.931Z,16.60
2019-05-21T18:55:50.627Z,16.50
2019-05-21T19:00:53.431Z,16.50
2019-05-21T19:05:57.075Z,16.50
2019-05-21T19:10:59.814Z,16.40
2019-05-21T19:16:02.489Z,16.20
2019-05-21T19:21:05.231Z,16.00
2019-05-21T19:26:07.986Z,15.80
2019-05-21T19:31:10.877Z,15.70
2019-05-21T19:36:13.555Z,15.60
2019-05-21T19:41:16.371Z,15.50
2019-05-21T19:46:19.108Z,15.40
2019-05-21T19:51:21.908Z,15.30
2019-05-21T19:56:24.659Z,15.20
2019-05-21T20:01:27.398Z,15.10
2019-05-21T20:06:30.698Z,15.00
2019-05-21T20:11:33.515Z,14.90
2019-05-21T20:16:37.146Z,14.80
2019-05-21T20:21:40.265Z,14.80
2019-05-21T20:26:43.002Z,14.70
2019-05-21T20:31:45.681Z,14.70
2019-05-21T20:36:48.489Z,14.60
2019-05-21T20:41:51.188Z,14.50
2019-05-21T20:46:54.416Z,14.40
2019-05-21T20:51:57.146Z,14.40
2019-05-21T20:56:59.892Z,14.40
2019-05-21T21:02:05.657Z,14.20
2019-05-21T21:07:07.099Z,14.20
2019-05-21T21:12:10.031Z,14.10
2019-05-21T21:17:12.723Z,14.00
2019-05-21T21:22:15.405Z,14.00
2019-05-21T21:27:18.142Z,14.00
2019-05-21T21:32:20.947Z,14.00
2019-05-21T21:37:23.702Z,13.90
2019-05-21T21:42:26.441Z,14.00
2019-05-21T21:47:29.106Z,13.90
2019-05-21T21:52:31.916Z,13.90
2019-05-21T21:57:34.595Z,13.80
2019-05-21T22:02:37.681Z,13.70
2019-05-21T22:07:40.508Z,13.60
2019-05-21T22:12:43.516Z,13.70
2019-05-21T22:17:46.604Z,13.70
2019-05-21T22:22:49.335Z,13.60
2019-05-21T22:27:52.003Z,13.50
2019-05-21T22:32:54.728Z,13.50
2019-05-21T22:37:57.392Z,13.60
2019-05-21T22:43:00.074Z,13.50
2019-05-21T22:48:02.819Z,13.40
2019-05-21T22:53:05.555Z,13.20
2019-05-21T22:58:08.354Z,13.20
2019-05-21T23:03:11.083Z,13.20
2019-05-21T23:08:13.740Z,13.00
2019-05-21T23:13:16.402Z,12.90
2019-05-21T23:18:19.074Z,13.10
2019-05-21T23:23:23.443Z,13.30
2019-05-21T23:28:26.114Z,13.40
2019-05-21T23:33:29.490Z,13.30
2019-05-21T23:38:32.182Z,13.40
2019-05-21T23:43:34.972Z,13.40
2019-05-21T23:48:37.900Z,13.50
2019-05-21T23:53:40.668Z,13.40
2019-05-21T23:58:43.399Z,13.50
